Shady Glen, California
Current Conditions -  °F | °C
As of 1:40 PM on Friday 19 Dec 2014 (Local Time) from KGOO Reporting Station
Overcast Overcast  
Wind Chill: 36°   Ceiling: 2100
Heat Index: 41°   Visibility: 2mi
Dew Point: 41°   Wind: 7mph
Humidity: 100%   Direction: 130°SE
Pressure: 30.14"   Gusts: NA
Location:  39.0937°N, 120.92°W
Report Text: KGOO 192140Z AUTO 13006KT 2SM BKN021 BKN031 OVC040 05/05 A3014 RMK AO1 P0002
Loading
Personal Weather Stations






























Interactive Weather Map New forecast layout! Learn more

10-Day Weather Forecast

Advertisements
Track Severe Weather on mobile